sensor_id;sensor_type;location;lat;lon;timestamp;P1;durP1;ratioP1;P2;durP2;ratioP2
39128;SDS011;24864;49.940;19.770;2023-04-06T00:00:26;13.98;;;8.00;;
39128;SDS011;24864;49.940;19.770;2023-04-06T00:03:14;16.20;;;8.23;;
39128;SDS011;24864;49.940;19.770;2023-04-06T00:05:43;15.07;;;8.20;;
39128;SDS011;24864;49.940;19.770;2023-04-06T00:08:11;16.20;;;8.95;;
39128;SDS011;24864;49.940;19.770;2023-04-06T00:10:39;16.42;;;9.07;;
39128;SDS011;24864;49.940;19.770;2023-04-06T00:13:08;15.77;;;8.75;;
39128;SDS011;24864;49.940;19.770;2023-04-06T00:15:36;18.35;;;9.30;;
39128;SDS011;24864;49.940;19.770;2023-04-06T00:18:05;16.77;;;9.27;;
39128;SDS011;24864;49.940;19.770;2023-04-06T00:20:35;17.73;;;8.95;;
39128;SDS011;24864;49.940;19.770;2023-04-06T00:23:03;16.48;;;8.38;;
39128;SDS011;24864;49.940;19.770;2023-04-06T00:25:31;16.17;;;8.77;;
39128;SDS011;24864;49.940;19.770;2023-04-06T00:28:00;17.60;;;9.10;;
39128;SDS011;24864;49.940;19.770;2023-04-06T00:30:29;15.43;;;8.13;;
39128;SDS011;24864;49.940;19.770;2023-04-06T00:32:58;12.63;;;7.93;;
39128;SDS011;24864;49.940;19.770;2023-04-06T00:35:27;19.70;;;9.45;;
39128;SDS011;24864;49.940;19.770;2023-04-06T00:37:57;23.85;;;10.63;;
39128;SDS011;24864;49.940;19.770;2023-04-06T00:40:25;22.10;;;10.77;;
39128;SDS011;24864;49.940;19.770;2023-04-06T00:42:55;24.98;;;11.63;;
39128;SDS011;24864;49.940;19.770;2023-04-06T00:45:23;17.67;;;10.88;;
39128;SDS011;24864;49.940;19.770;2023-04-06T00:47:51;20.60;;;10.10;;
39128;SDS011;24864;49.940;19.770;2023-04-06T00:50:20;15.52;;;10.25;;
39128;SDS011;24864;49.940;19.770;2023-04-06T00:52:48;21.17;;;10.35;;
39128;SDS011;24864;49.940;19.770;2023-04-06T00:55:18;26.63;;;10.82;;
39128;SDS011;24864;49.940;19.770;2023-04-06T00:57:46;20.67;;;10.23;;
39128;SDS011;24864;49.940;19.770;2023-04-06T01:00:16;16.25;;;9.20;;
39128;SDS011;24864;49.940;19.770;2023-04-06T01:02:45;21.85;;;12.18;;
39128;SDS011;24864;49.940;19.770;2023-04-06T01:05:14;22.65;;;12.10;;
39128;SDS011;24864;49.940;19.770;2023-04-06T01:07:43;17.48;;;11.13;;
39128;SDS011;24864;49.940;19.770;2023-04-06T01:10:11;26.10;;;12.32;;
39128;SDS011;24864;49.940;19.770;2023-04-06T01:12:52;25.98;;;12.02;;
39128;SDS011;24864;49.940;19.770;2023-04-06T01:15:20;25.13;;;11.90;;
39128;SDS011;24864;49.940;19.770;2023-04-06T01:17:48;26.90;;;10.73;;
39128;SDS011;24864;49.940;19.770;2023-04-06T01:20:17;20.48;;;10.85;;
39128;SDS011;24864;49.940;19.770;2023-04-06T01:22:47;20.02;;;10.77;;
39128;SDS011;24864;49.940;19.770;2023-04-06T01:25:15;16.90;;;10.20;;
39128;SDS011;24864;49.940;19.770;2023-04-06T01:27:44;21.48;;;11.00;;
39128;SDS011;24864;49.940;19.770;2023-04-06T01:30:12;19.73;;;10.70;;
39128;SDS011;24864;49.940;19.770;2023-04-06T01:32:41;18.90;;;9.82;;
39128;SDS011;24864;49.940;19.770;2023-04-06T01:35:09;20.10;;;10.38;;
39128;SDS011;24864;49.940;19.770;2023-04-06T01:37:39;18.02;;;9.07;;
39128;SDS011;24864;49.940;19.770;2023-04-06T01:40:09;16.15;;;10.00;;
39128;SDS011;24864;49.940;19.770;2023-04-06T01:42:38;19.10;;;9.88;;
39128;SDS011;24864;49.940;19.770;2023-04-06T01:45:07;19.15;;;10.18;;
39128;SDS011;24864;49.940;19.770;2023-04-06T01:47:36;18.80;;;11.13;;
39128;SDS011;24864;49.940;19.770;2023-04-06T01:50:04;15.38;;;9.90;;
39128;SDS011;24864;49.940;19.770;2023-04-06T01:52:34;14.82;;;9.27;;
39128;SDS011;24864;49.940;19.770;2023-04-06T01:55:02;22.20;;;10.38;;
39128;SDS011;24864;49.940;19.770;2023-04-06T01:57:32;20.88;;;10.65;;
39128;SDS011;24864;49.940;19.770;2023-04-06T02:00:01;20.50;;;10.52;;
39128;SDS011;24864;49.940;19.770;2023-04-06T02:02:30;32.28;;;12.55;;
39128;SDS011;24864;49.940;19.770;2023-04-06T02:04:58;25.73;;;13.48;;
39128;SDS011;24864;49.940;19.770;2023-04-06T02:07:27;34.38;;;17.75;;
39128;SDS011;24864;49.940;19.770;2023-04-06T02:09:55;31.55;;;14.52;;
39128;SDS011;24864;49.940;19.770;2023-04-06T02:12:24;25.23;;;12.82;;
39128;SDS011;24864;49.940;19.770;2023-04-06T02:14:54;20.70;;;12.07;;
39128;SDS011;24864;49.940;19.770;2023-04-06T02:17:22;26.63;;;12.60;;
39128;SDS011;24864;49.940;19.770;2023-04-06T02:19:50;18.92;;;11.70;;
39128;SDS011;24864;49.940;19.770;2023-04-06T02:22:19;25.08;;;11.88;;
39128;SDS011;24864;49.940;19.770;2023-04-06T02:24:47;24.50;;;12.05;;
39128;SDS011;24864;49.940;19.770;2023-04-06T02:27:16;28.30;;;12.13;;
39128;SDS011;24864;49.940;19.770;2023-04-06T02:29:44;21.30;;;11.52;;
39128;SDS011;24864;49.940;19.770;2023-04-06T02:32:14;27.83;;;12.85;;
39128;SDS011;24864;49.940;19.770;2023-04-06T02:34:42;23.27;;;11.80;;
39128;SDS011;24864;49.940;19.770;2023-04-06T02:37:11;25.15;;;12.27;;
39128;SDS011;24864;49.940;19.770;2023-04-06T02:39:39;22.98;;;12.65;;
39128;SDS011;24864;49.940;19.770;2023-04-06T02:42:08;22.25;;;13.30;;
39128;SDS011;24864;49.940;19.770;2023-04-06T02:44:36;23.88;;;12.98;;
39128;SDS011;24864;49.940;19.770;2023-04-06T02:47:05;23.10;;;14.35;;
39128;SDS011;24864;49.940;19.770;2023-04-06T02:49:34;25.63;;;13.38;;
39128;SDS011;24864;49.940;19.770;2023-04-06T02:52:03;28.83;;;14.02;;
39128;SDS011;24864;49.940;19.770;2023-04-06T02:54:31;28.38;;;12.68;;
39128;SDS011;24864;49.940;19.770;2023-04-06T02:57:00;28.05;;;14.50;;
39128;SDS011;24864;49.940;19.770;2023-04-06T02:59:28;27.38;;;13.90;;
39128;SDS011;24864;49.940;19.770;2023-04-06T03:01:57;28.05;;;13.50;;
39128;SDS011;24864;49.940;19.770;2023-04-06T03:04:26;26.25;;;13.68;;
39128;SDS011;24864;49.940;19.770;2023-04-06T03:06:55;27.67;;;13.77;;
39128;SDS011;24864;49.940;19.770;2023-04-06T03:11:55;35.65;;;15.60;;
39128;SDS011;24864;49.940;19.770;2023-04-06T03:14:23;27.60;;;14.82;;
39128;SDS011;24864;49.940;19.770;2023-04-06T03:16:52;33.08;;;16.83;;
39128;SDS011;24864;49.940;19.770;2023-04-06T03:19:20;32.15;;;17.27;;
39128;SDS011;24864;49.940;19.770;2023-04-06T03:21:49;33.95;;;16.88;;
39128;SDS011;24864;49.940;19.770;2023-04-06T03:24:18;31.08;;;17.08;;
39128;SDS011;24864;49.940;19.770;2023-04-06T03:26:47;36.10;;;17.55;;
39128;SDS011;24864;49.940;19.770;2023-04-06T03:29:15;35.83;;;17.35;;
39128;SDS011;24864;49.940;19.770;2023-04-06T03:31:44;34.22;;;19.67;;
39128;SDS011;24864;49.940;19.770;2023-04-06T03:34:12;28.90;;;17.27;;
39128;SDS011;24864;49.940;19.770;2023-04-06T03:36:41;33.75;;;17.85;;
39128;SDS011;24864;49.940;19.770;2023-04-06T03:39:09;30.65;;;17.45;;
39128;SDS011;24864;49.940;19.770;2023-04-06T03:41:39;35.47;;;16.67;;
39128;SDS011;24864;49.940;19.770;2023-04-06T03:44:07;31.77;;;16.15;;
39128;SDS011;24864;49.940;19.770;2023-04-06T03:46:36;33.38;;;17.80;;
39128;SDS011;24864;49.940;19.770;2023-04-06T03:49:04;27.17;;;16.63;;
39128;SDS011;24864;49.940;19.770;2023-04-06T03:51:33;32.03;;;16.20;;
39128;SDS011;24864;49.940;19.770;2023-04-06T03:54:02;31.83;;;16.27;;
39128;SDS011;24864;49.940;19.770;2023-04-06T03:56:30;28.45;;;14.80;;
39128;SDS011;24864;49.940;19.770;2023-04-06T03:59:00;31.48;;;15.57;;
39128;SDS011;24864;49.940;19.770;2023-04-06T04:01:29;31.33;;;16.45;;
39128;SDS011;24864;49.940;19.770;2023-04-06T04:03:57;31.20;;;16.20;;
39128;SDS011;24864;49.940;19.770;2023-04-06T04:06:26;27.95;;;15.25;;
39128;SDS011;24864;49.940;19.770;2023-04-06T04:08:54;35.08;;;15.68;;
39128;SDS011;24864;49.940;19.770;2023-04-06T04:11:23;32.75;;;16.05;;
39128;SDS011;24864;49.940;19.770;2023-04-06T04:13:51;29.92;;;16.83;;
39128;SDS011;24864;49.940;19.770;2023-04-06T04:16:21;26.70;;;17.00;;
39128;SDS011;24864;49.940;19.770;2023-04-06T04:18:49;33.55;;;18.10;;
39128;SDS011;24864;49.940;19.770;2023-04-06T04:21:18;36.40;;;18.63;;
39128;SDS011;24864;49.940;19.770;2023-04-06T04:23:46;36.13;;;18.00;;
39128;SDS011;24864;49.940;19.770;2023-04-06T04:26:14;36.85;;;18.65;;
39128;SDS011;24864;49.940;19.770;2023-04-06T04:28:43;40.35;;;19.05;;
39128;SDS011;24864;49.940;19.770;2023-04-06T04:31:11;37.53;;;19.40;;
39128;SDS011;24864;49.940;19.770;2023-04-06T04:33:41;34.38;;;18.92;;
39128;SDS011;24864;49.940;19.770;2023-04-06T04:36:09;40.35;;;19.08;;
39128;SDS011;24864;49.940;19.770;2023-04-06T04:38:38;37.55;;;19.13;;
39128;SDS011;24864;49.940;19.770;2023-04-06T04:41:06;36.78;;;19.20;;
39128;SDS011;24864;49.940;19.770;2023-04-06T04:43:34;37.20;;;17.77;;
39128;SDS011;24864;49.940;19.770;2023-04-06T04:46:03;36.80;;;19.45;;
39128;SDS011;24864;49.940;19.770;2023-04-06T04:48:32;40.08;;;19.80;;
39128;SDS011;24864;49.940;19.770;2023-04-06T04:51:02;35.63;;;17.70;;
39128;SDS011;24864;49.940;19.770;2023-04-06T04:53:31;37.88;;;18.33;;
39128;SDS011;24864;49.940;19.770;2023-04-06T04:56:00;46.10;;;18.90;;
39128;SDS011;24864;49.940;19.770;2023-04-06T04:58:28;37.83;;;18.10;;
39128;SDS011;24864;49.940;19.770;2023-04-06T05:00:57;46.78;;;19.48;;
39128;SDS011;24864;49.940;19.770;2023-04-06T05:03:25;36.70;;;19.33;;
39128;SDS011;24864;49.940;19.770;2023-04-06T05:05:54;35.15;;;18.90;;
39128;SDS011;24864;49.940;19.770;2023-04-06T05:08:24;41.88;;;19.00;;
39128;SDS011;24864;49.940;19.770;2023-04-06T05:10:52;38.63;;;19.30;;
39128;SDS011;24864;49.940;19.770;2023-04-06T05:13:21;40.95;;;19.55;;
39128;SDS011;24864;49.940;19.770;2023-04-06T05:15:49;38.45;;;19.08;;
39128;SDS011;24864;49.940;19.770;2023-04-06T05:18:18;41.38;;;19.23;;
39128;SDS011;24864;49.940;19.770;2023-04-06T05:20:46;37.70;;;18.88;;
39128;SDS011;24864;49.940;19.770;2023-04-06T05:23:14;39.05;;;19.17;;
39128;SDS011;24864;49.940;19.770;2023-04-06T05:25:44;42.72;;;19.08;;
39128;SDS011;24864;49.940;19.770;2023-04-06T05:28:13;36.95;;;18.80;;
39128;SDS011;24864;49.940;19.770;2023-04-06T05:30:42;33.90;;;18.65;;
39128;SDS011;24864;49.940;19.770;2023-04-06T05:33:11;39.20;;;20.23;;
39128;SDS011;24864;49.940;19.770;2023-04-06T05:35:40;35.95;;;20.55;;
39128;SDS011;24864;49.940;19.770;2023-04-06T05:38:08;33.60;;;18.10;;
39128;SDS011;24864;49.940;19.770;2023-04-06T05:40:37;39.38;;;20.02;;
39128;SDS011;24864;49.940;19.770;2023-04-06T05:43:08;39.10;;;19.52;;
39128;SDS011;24864;49.940;19.770;2023-04-06T05:45:37;34.80;;;19.38;;
39128;SDS011;24864;49.940;19.770;2023-04-06T05:48:05;41.72;;;22.50;;
39128;SDS011;24864;49.940;19.770;2023-04-06T05:50:34;51.75;;;24.23;;
39128;SDS011;24864;49.940;19.770;2023-04-06T05:53:02;37.42;;;18.63;;
39128;SDS011;24864;49.940;19.770;2023-04-06T05:55:31;34.40;;;18.08;;
39128;SDS011;24864;49.940;19.770;2023-04-06T05:57:59;28.15;;;15.43;;
39128;SDS011;24864;49.940;19.770;2023-04-06T06:00:29;33.15;;;17.05;;
39128;SDS011;24864;49.940;19.770;2023-04-06T06:02:57;27.58;;;13.43;;
39128;SDS011;24864;49.940;19.770;2023-04-06T06:05:26;25.45;;;14.35;;
39128;SDS011;24864;49.940;19.770;2023-04-06T06:07:56;25.75;;;14.32;;
39128;SDS011;24864;49.940;19.770;2023-04-06T06:10:24;28.92;;;13.95;;
39128;SDS011;24864;49.940;19.770;2023-04-06T06:12:52;32.30;;;15.57;;
39128;SDS011;24864;49.940;19.770;2023-04-06T06:15:21;32.47;;;16.10;;
39128;SDS011;24864;49.940;19.770;2023-04-06T06:17:51;31.00;;;14.70;;
39128;SDS011;24864;49.940;19.770;2023-04-06T06:20:19;35.60;;;15.00;;
39128;SDS011;24864;49.940;19.770;2023-04-06T06:22:48;29.80;;;15.18;;
39128;SDS011;24864;49.940;19.770;2023-04-06T06:25:16;33.53;;;16.88;;
39128;SDS011;24864;49.940;19.770;2023-04-06T06:27:45;32.33;;;15.60;;
39128;SDS011;24864;49.940;19.770;2023-04-06T06:30:14;33.38;;;16.92;;
39128;SDS011;24864;49.940;19.770;2023-04-06T06:32:42;34.55;;;17.33;;
39128;SDS011;24864;49.940;19.770;2023-04-06T06:35:12;34.20;;;17.58;;
39128;SDS011;24864;49.940;19.770;2023-04-06T06:37:41;32.42;;;17.02;;
39128;SDS011;24864;49.940;19.770;2023-04-06T06:40:10;44.47;;;19.17;;
39128;SDS011;24864;49.940;19.770;2023-04-06T06:42:39;35.45;;;17.02;;
39128;SDS011;24864;49.940;19.770;2023-04-06T06:45:08;33.25;;;18.90;;
39128;SDS011;24864;49.940;19.770;2023-04-06T06:47:37;33.00;;;18.48;;
39128;SDS011;24864;49.940;19.770;2023-04-06T06:50:06;34.72;;;16.83;;
39128;SDS011;24864;49.940;19.770;2023-04-06T06:52:36;29.60;;;16.45;;
39128;SDS011;24864;49.940;19.770;2023-04-06T06:55:05;37.10;;;18.13;;
39128;SDS011;24864;49.940;19.770;2023-04-06T06:57:34;44.60;;;20.13;;
39128;SDS011;24864;49.940;19.770;2023-04-06T07:00:03;38.05;;;19.08;;
39128;SDS011;24864;49.940;19.770;2023-04-06T07:02:33;36.78;;;19.10;;
39128;SDS011;24864;49.940;19.770;2023-04-06T07:05:03;28.65;;;17.27;;
39128;SDS011;24864;49.940;19.770;2023-04-06T07:07:54;34.47;;;17.95;;
39128;SDS011;24864;49.940;19.770;2023-04-06T07:10:23;34.40;;;18.38;;
39128;SDS011;24864;49.940;19.770;2023-04-06T07:12:52;33.70;;;17.35;;
39128;SDS011;24864;49.940;19.770;2023-04-06T07:15:21;34.60;;;18.75;;
39128;SDS011;24864;49.940;19.770;2023-04-06T07:17:49;36.20;;;19.35;;
39128;SDS011;24864;49.940;19.770;2023-04-06T07:20:19;29.67;;;18.20;;
39128;SDS011;24864;49.940;19.770;2023-04-06T07:22:47;38.58;;;17.98;;
39128;SDS011;24864;49.940;19.770;2023-04-06T07:25:17;32.25;;;17.15;;
39128;SDS011;24864;49.940;19.770;2023-04-06T07:27:45;19.55;;;10.25;;
39128;SDS011;24864;49.940;19.770;2023-04-06T07:30:14;18.67;;;9.70;;
39128;SDS011;24864;49.940;19.770;2023-04-06T07:32:44;19.20;;;10.35;;
39128;SDS011;24864;49.940;19.770;2023-04-06T07:35:13;15.50;;;9.20;;
39128;SDS011;24864;49.940;19.770;2023-04-06T07:37:41;19.52;;;10.13;;
39128;SDS011;24864;49.940;19.770;2023-04-06T07:40:10;16.05;;;10.48;;
39128;SDS011;24864;49.940;19.770;2023-04-06T07:42:40;17.10;;;10.70;;
39128;SDS011;24864;49.940;19.770;2023-04-06T07:45:09;20.30;;;9.98;;
39128;SDS011;24864;49.940;19.770;2023-04-06T07:47:38;17.63;;;10.15;;
39128;SDS011;24864;49.940;19.770;2023-04-06T07:50:07;18.33;;;10.80;;
39128;SDS011;24864;49.940;19.770;2023-04-06T07:52:36;10.90;;;7.50;;
39128;SDS011;24864;49.940;19.770;2023-04-06T07:55:04;13.43;;;7.03;;
39128;SDS011;24864;49.940;19.770;2023-04-06T07:57:33;12.52;;;7.22;;
39128;SDS011;24864;49.940;19.770;2023-04-06T08:00:03;11.05;;;7.25;;
39128;SDS011;24864;49.940;19.770;2023-04-06T08:02:33;11.52;;;7.05;;
39128;SDS011;24864;49.940;19.770;2023-04-06T08:05:02;10.93;;;7.30;;
39128;SDS011;24864;49.940;19.770;2023-04-06T08:07:30;12.30;;;7.32;;
39128;SDS011;24864;49.940;19.770;2023-04-06T08:09:59;16.02;;;8.45;;
39128;SDS011;24864;49.940;19.770;2023-04-06T08:12:27;9.13;;;6.47;;
39128;SDS011;24864;49.940;19.770;2023-04-06T08:14:56;12.90;;;7.80;;
39128;SDS011;24864;49.940;19.770;2023-04-06T08:17:26;13.10;;;8.18;;
39128;SDS011;24864;49.940;19.770;2023-04-06T08:19:57;11.85;;;7.22;;
39128;SDS011;24864;49.940;19.770;2023-04-06T08:22:25;15.68;;;7.10;;
39128;SDS011;24864;49.940;19.770;2023-04-06T08:24:54;15.82;;;8.02;;
39128;SDS011;24864;49.940;19.770;2023-04-06T08:27:22;12.77;;;7.18;;
39128;SDS011;24864;49.940;19.770;2023-04-06T08:29:51;17.25;;;10.20;;
39128;SDS011;24864;49.940;19.770;2023-04-06T08:32:19;16.38;;;8.88;;
39128;SDS011;24864;49.940;19.770;2023-04-06T08:34:52;15.95;;;8.88;;
39128;SDS011;24864;49.940;19.770;2023-04-06T08:37:21;13.85;;;8.23;;
39128;SDS011;24864;49.940;19.770;2023-04-06T08:39:49;16.73;;;8.75;;
39128;SDS011;24864;49.940;19.770;2023-04-06T08:42:19;23.65;;;13.70;;
39128;SDS011;24864;49.940;19.770;2023-04-06T08:44:49;16.70;;;10.02;;
39128;SDS011;24864;49.940;19.770;2023-04-06T08:47:19;12.27;;;7.68;;
39128;SDS011;24864;49.940;19.770;2023-04-06T08:49:52;14.30;;;7.38;;
39128;SDS011;24864;49.940;19.770;2023-04-06T08:52:22;15.25;;;8.25;;
39128;SDS011;24864;49.940;19.770;2023-04-06T08:54:50;11.50;;;8.05;;
39128;SDS011;24864;49.940;19.770;2023-04-06T08:57:19;13.77;;;6.63;;
39128;SDS011;24864;49.940;19.770;2023-04-06T08:59:48;12.30;;;7.65;;
39128;SDS011;24864;49.940;19.770;2023-04-06T09:02:18;13.55;;;8.80;;
39128;SDS011;24864;49.940;19.770;2023-04-06T09:04:47;13.10;;;8.38;;
39128;SDS011;24864;49.940;19.770;2023-04-06T09:07:18;13.27;;;7.95;;
39128;SDS011;24864;49.940;19.770;2023-04-06T09:09:46;13.98;;;8.77;;
39128;SDS011;24864;49.940;19.770;2023-04-06T09:12:24;13.80;;;6.95;;
39128;SDS011;24864;49.940;19.770;2023-04-06T09:14:54;13.15;;;8.45;;
39128;SDS011;24864;49.940;19.770;2023-04-06T09:17:23;12.70;;;8.30;;
39128;SDS011;24864;49.940;19.770;2023-04-06T09:19:53;13.45;;;8.38;;
39128;SDS011;24864;49.940;19.770;2023-04-06T09:22:23;14.10;;;7.78;;
39128;SDS011;24864;49.940;19.770;2023-04-06T09:24:53;9.75;;;7.50;;
39128;SDS011;24864;49.940;19.770;2023-04-06T09:27:29;11.82;;;8.00;;
39128;SDS011;24864;49.940;19.770;2023-04-06T09:30:03;16.45;;;9.23;;
39128;SDS011;24864;49.940;19.770;2023-04-06T09:32:32;14.38;;;9.10;;
39128;SDS011;24864;49.940;19.770;2023-04-06T09:35:13;14.02;;;9.52;;
39128;SDS011;24864;49.940;19.770;2023-04-06T09:37:43;17.15;;;8.00;;
39128;SDS011;24864;49.940;19.770;2023-04-06T09:40:12;18.80;;;8.35;;
39128;SDS011;24864;49.940;19.770;2023-04-06T09:42:44;12.33;;;7.93;;
39128;SDS011;24864;49.940;19.770;2023-04-06T09:45:14;14.75;;;8.15;;
39128;SDS011;24864;49.940;19.770;2023-04-06T09:47:43;12.30;;;7.72;;
39128;SDS011;24864;49.940;19.770;2023-04-06T09:50:13;17.35;;;7.90;;
39128;SDS011;24864;49.940;19.770;2023-04-06T09:52:46;10.80;;;7.45;;
39128;SDS011;24864;49.940;19.770;2023-04-06T09:55:17;16.08;;;8.13;;
39128;SDS011;24864;49.940;19.770;2023-04-06T09:57:53;13.43;;;7.93;;
39128;SDS011;24864;49.940;19.770;2023-04-06T10:00:26;12.05;;;8.07;;
39128;SDS011;24864;49.940;19.770;2023-04-06T10:02:56;10.82;;;6.80;;
39128;SDS011;24864;49.940;19.770;2023-04-06T10:05:29;14.30;;;7.75;;
39128;SDS011;24864;49.940;19.770;2023-04-06T10:08:05;11.70;;;8.77;;
39128;SDS011;24864;49.940;19.770;2023-04-06T10:10:35;14.10;;;7.95;;
39128;SDS011;24864;49.940;19.770;2023-04-06T10:13:04;17.90;;;8.90;;
39128;SDS011;24864;49.940;19.770;2023-04-06T10:15:33;12.38;;;7.50;;
39128;SDS011;24864;49.940;19.770;2023-04-06T10:18:01;12.95;;;8.40;;
39128;SDS011;24864;49.940;19.770;2023-04-06T10:20:31;15.10;;;8.63;;
39128;SDS011;24864;49.940;19.770;2023-04-06T10:23:06;11.80;;;8.00;;
39128;SDS011;24864;49.940;19.770;2023-04-06T10:25:51;14.00;;;8.93;;
39128;SDS011;24864;49.940;19.770;2023-04-06T10:28:20;15.48;;;8.25;;
39128;SDS011;24864;49.940;19.770;2023-04-06T10:30:48;11.13;;;7.60;;
39128;SDS011;24864;49.940;19.770;2023-04-06T10:33:17;11.43;;;7.63;;
39128;SDS011;24864;49.940;19.770;2023-04-06T10:35:47;13.32;;;7.57;;
39128;SDS011;24864;49.940;19.770;2023-04-06T10:38:17;12.13;;;7.90;;
39128;SDS011;24864;49.940;19.770;2023-04-06T10:40:48;15.55;;;8.50;;
39128;SDS011;24864;49.940;19.770;2023-04-06T10:43:18;16.40;;;8.68;;
39128;SDS011;24864;49.940;19.770;2023-04-06T10:45:54;10.70;;;7.75;;
39128;SDS011;24864;49.940;19.770;2023-04-06T10:48:23;9.98;;;8.35;;
39128;SDS011;24864;49.940;19.770;2023-04-06T10:50:54;12.93;;;7.40;;
39128;SDS011;24864;49.940;19.770;2023-04-06T10:53:24;12.07;;;6.72;;
39128;SDS011;24864;49.940;19.770;2023-04-06T10:55:54;9.85;;;6.43;;
39128;SDS011;24864;49.940;19.770;2023-04-06T10:58:24;11.18;;;7.47;;
39128;SDS011;24864;49.940;19.770;2023-04-06T11:00:53;15.52;;;7.47;;
39128;SDS011;24864;49.940;19.770;2023-04-06T11:03:23;10.85;;;6.70;;
39128;SDS011;24864;49.940;19.770;2023-04-06T11:05:51;12.55;;;7.95;;
39128;SDS011;24864;49.940;19.770;2023-04-06T11:08:24;11.60;;;6.60;;
39128;SDS011;24864;49.940;19.770;2023-04-06T11:11:03;12.88;;;6.88;;
39128;SDS011;24864;49.940;19.770;2023-04-06T11:13:37;10.60;;;6.78;;
39128;SDS011;24864;49.940;19.770;2023-04-06T11:16:06;11.88;;;7.53;;
39128;SDS011;24864;49.940;19.770;2023-04-06T11:18:34;10.35;;;6.45;;
39128;SDS011;24864;49.940;19.770;2023-04-06T11:21:04;9.45;;;7.50;;
39128;SDS011;24864;49.940;19.770;2023-04-06T11:23:34;15.88;;;8.20;;
39128;SDS011;24864;49.940;19.770;2023-04-06T11:26:03;13.50;;;8.00;;
39128;SDS011;24864;49.940;19.770;2023-04-06T11:28:31;15.93;;;7.00;;
39128;SDS011;24864;49.940;19.770;2023-04-06T11:31:00;13.35;;;7.90;;
39128;SDS011;24864;49.940;19.770;2023-04-06T11:33:28;11.23;;;7.53;;
39128;SDS011;24864;49.940;19.770;2023-04-06T11:35:57;13.00;;;8.73;;
39128;SDS011;24864;49.940;19.770;2023-04-06T11:38:25;13.32;;;9.32;;
39128;SDS011;24864;49.940;19.770;2023-04-06T11:40:55;19.38;;;7.97;;
39128;SDS011;24864;49.940;19.770;2023-04-06T11:43:27;13.00;;;8.18;;
39128;SDS011;24864;49.940;19.770;2023-04-06T11:45:59;12.50;;;8.40;;
39128;SDS011;24864;49.940;19.770;2023-04-06T11:48:29;14.13;;;8.77;;
39128;SDS011;24864;49.940;19.770;2023-04-06T11:50:58;15.45;;;8.23;;
39128;SDS011;24864;49.940;19.770;2023-04-06T11:53:27;16.00;;;8.63;;
39128;SDS011;24864;49.940;19.770;2023-04-06T11:55:58;14.57;;;9.48;;
39128;SDS011;24864;49.940;19.770;2023-04-06T11:58:26;15.18;;;9.68;;
39128;SDS011;24864;49.940;19.770;2023-04-06T12:01:02;13.98;;;8.63;;
39128;SDS011;24864;49.940;19.770;2023-04-06T12:03:31;17.58;;;9.55;;
39128;SDS011;24864;49.940;19.770;2023-04-06T12:05:59;17.60;;;11.30;;
39128;SDS011;24864;49.940;19.770;2023-04-06T12:08:28;22.67;;;11.80;;
39128;SDS011;24864;49.940;19.770;2023-04-06T12:10:58;24.38;;;13.45;;
39128;SDS011;24864;49.940;19.770;2023-04-06T12:13:26;24.00;;;13.75;;
39128;SDS011;24864;49.940;19.770;2023-04-06T12:15:55;26.20;;;14.55;;
39128;SDS011;24864;49.940;19.770;2023-04-06T12:18:23;26.48;;;13.38;;
39128;SDS011;24864;49.940;19.770;2023-04-06T12:20:52;26.27;;;16.23;;
39128;SDS011;24864;49.940;19.770;2023-04-06T12:23:20;20.80;;;13.32;;
39128;SDS011;24864;49.940;19.770;2023-04-06T12:25:49;26.30;;;16.50;;
39128;SDS011;24864;49.940;19.770;2023-04-06T12:28:19;32.05;;;16.65;;
39128;SDS011;24864;49.940;19.770;2023-04-06T12:30:50;32.00;;;17.67;;
39128;SDS011;24864;49.940;19.770;2023-04-06T12:33:18;32.97;;;17.05;;
39128;SDS011;24864;49.940;19.770;2023-04-06T12:35:47;32.35;;;18.13;;
39128;SDS011;24864;49.940;19.770;2023-04-06T12:38:16;30.40;;;17.00;;
39128;SDS011;24864;49.940;19.770;2023-04-06T12:40:44;27.25;;;18.27;;
39128;SDS011;24864;49.940;19.770;2023-04-06T12:43:12;27.92;;;16.45;;
39128;SDS011;24864;49.940;19.770;2023-04-06T12:45:43;36.03;;;18.67;;
39128;SDS011;24864;49.940;19.770;2023-04-06T12:48:12;37.95;;;18.45;;
39128;SDS011;24864;49.940;19.770;2023-04-06T12:50:40;31.27;;;16.98;;
39128;SDS011;24864;49.940;19.770;2023-04-06T12:53:09;28.92;;;17.20;;
39128;SDS011;24864;49.940;19.770;2023-04-06T12:55:37;29.48;;;16.85;;
39128;SDS011;24864;49.940;19.770;2023-04-06T12:58:06;33.47;;;17.80;;
39128;SDS011;24864;49.940;19.770;2023-04-06T13:00:34;26.95;;;17.55;;
39128;SDS011;24864;49.940;19.770;2023-04-06T13:03:04;33.67;;;17.58;;
39128;SDS011;24864;49.940;19.770;2023-04-06T13:05:33;37.58;;;21.52;;
39128;SDS011;24864;49.940;19.770;2023-04-06T13:08:01;32.75;;;18.58;;
39128;SDS011;24864;49.940;19.770;2023-04-06T13:10:30;33.28;;;18.60;;
39128;SDS011;24864;49.940;19.770;2023-04-06T13:12:58;40.85;;;21.48;;
39128;SDS011;24864;49.940;19.770;2023-04-06T13:15:26;38.22;;;21.08;;
39128;SDS011;24864;49.940;19.770;2023-04-06T13:17:55;36.03;;;20.50;;
39128;SDS011;24864;49.940;19.770;2023-04-06T13:20:25;37.95;;;19.88;;
39128;SDS011;24864;49.940;19.770;2023-04-06T13:22:54;33.40;;;20.08;;
39128;SDS011;24864;49.940;19.770;2023-04-06T13:25:22;33.05;;;19.73;;
39128;SDS011;24864;49.940;19.770;2023-04-06T13:27:50;36.00;;;19.95;;
39128;SDS011;24864;49.940;19.770;2023-04-06T13:30:19;38.72;;;19.63;;
39128;SDS011;24864;49.940;19.770;2023-04-06T13:32:49;40.05;;;22.90;;
39128;SDS011;24864;49.940;19.770;2023-04-06T13:35:17;39.40;;;22.92;;
39128;SDS011;24864;49.940;19.770;2023-04-06T13:37:47;40.53;;;23.83;;
39128;SDS011;24864;49.940;19.770;2023-04-06T13:40:18;50.15;;;26.38;;
39128;SDS011;24864;49.940;19.770;2023-04-06T13:42:47;52.88;;;27.33;;
39128;SDS011;24864;49.940;19.770;2023-04-06T13:45:16;45.10;;;25.55;;
39128;SDS011;24864;49.940;19.770;2023-04-06T13:47:44;51.28;;;27.17;;
39128;SDS011;24864;49.940;19.770;2023-04-06T13:50:12;50.95;;;28.65;;
39128;SDS011;24864;49.940;19.770;2023-04-06T13:52:41;44.13;;;25.13;;
39128;SDS011;24864;49.940;19.770;2023-04-06T13:55:10;59.90;;;31.52;;
39128;SDS011;24864;49.940;19.770;2023-04-06T13:57:39;59.70;;;30.77;;
39128;SDS011;24864;49.940;19.770;2023-04-06T14:00:08;51.78;;;27.88;;
39128;SDS011;24864;49.940;19.770;2023-04-06T14:02:38;47.40;;;26.52;;
39128;SDS011;24864;49.940;19.770;2023-04-06T14:05:06;57.28;;;28.95;;
39128;SDS011;24864;49.940;19.770;2023-04-06T14:07:35;57.03;;;29.38;;
39128;SDS011;24864;49.940;19.770;2023-04-06T14:10:04;50.28;;;24.45;;
39128;SDS011;24864;49.940;19.770;2023-04-06T14:12:41;58.80;;;31.23;;
39128;SDS011;24864;49.940;19.770;2023-04-06T14:15:11;50.77;;;29.10;;
39128;SDS011;24864;49.940;19.770;2023-04-06T14:17:40;55.13;;;28.00;;
39128;SDS011;24864;49.940;19.770;2023-04-06T14:20:08;54.05;;;29.55;;
39128;SDS011;24864;49.940;19.770;2023-04-06T14:22:40;50.70;;;25.73;;
39128;SDS011;24864;49.940;19.770;2023-04-06T14:25:10;58.95;;;30.13;;
39128;SDS011;24864;49.940;19.770;2023-04-06T14:27:39;61.00;;;33.20;;